createdAt,value
2017-09-30T00:00:50.014Z,100937.97
2017-09-30T00:03:16.880Z,100932.97
2017-09-30T00:05:44.510Z,100937.66
2017-09-30T00:08:11.362Z,100946.95
2017-09-30T00:10:38.205Z,100947.47
2017-09-30T00:13:05.059Z,100946.96
2017-09-30T00:15:31.868Z,100950.54
2017-09-30T00:17:58.740Z,100949.21
2017-09-30T00:20:25.655Z,100958.87
2017-09-30T00:22:52.487Z,100955.00
2017-09-30T00:25:20.083Z,100956.42
2017-09-30T00:27:46.925Z,100957.52
2017-09-30T00:30:13.770Z,100951.81
2017-09-30T00:32:40.622Z,100960.06
2017-09-30T00:35:07.472Z,100966.18
2017-09-30T00:37:34.436Z,100966.14
2017-09-30T00:40:01.297Z,100960.83
2017-09-30T00:42:28.173Z,100968.69
2017-09-30T00:44:55.091Z,100972.70
2017-09-30T00:47:21.949Z,100971.84
2017-09-30T00:49:48.825Z,100977.83
2017-09-30T00:52:15.717Z,100976.34
2017-09-30T00:54:42.609Z,100973.59
2017-09-30T00:57:10.269Z,100973.45
2017-09-30T00:59:37.167Z,100971.02
2017-09-30T01:02:04.787Z,100975.67
2017-09-30T01:04:31.664Z,100986.55
2017-09-30T01:06:58.527Z,100988.22
2017-09-30T01:09:25.359Z,100988.08
2017-09-30T01:11:52.278Z,100990.86
2017-09-30T01:14:19.900Z,100986.85
2017-09-30T01:16:46.801Z,100985.44
2017-09-30T01:19:13.703Z,100985.09
2017-09-30T01:21:40.683Z,100988.30
2017-09-30T01:24:07.583Z,100995.95
2017-09-30T01:26:34.478Z,100999.84
2017-09-30T01:29:02.108Z,101000.53
2017-09-30T01:31:29.005Z,100998.92
2017-09-30T01:33:55.882Z,100994.72
2017-09-30T01:36:23.547Z,100994.97
2017-09-30T01:38:50.470Z,100999.85
2017-09-30T01:41:17.341Z,101004.78
2017-09-30T01:43:44.237Z,101012.56
2017-09-30T01:46:11.869Z,101016.09
2017-09-30T01:48:38.793Z,101010.25
2017-09-30T01:51:06.473Z,101010.75
2017-09-30T01:53:33.406Z,101014.32
2017-09-30T01:56:00.309Z,101018.89
2017-09-30T01:58:27.217Z,101015.70
2017-09-30T02:00:54.117Z,101018.05
2017-09-30T02:03:21.019Z,101011.55
2017-09-30T02:05:48.657Z,101002.52
2017-09-30T02:08:16.309Z,100999.03
2017-09-30T02:10:43.204Z,101001.74
2017-09-30T02:13:10.062Z,101000.63
2017-09-30T02:15:37.677Z,100998.79
2017-09-30T02:18:04.508Z,100994.38
2017-09-30T02:20:32.167Z,100977.22
2017-09-30T02:22:59.041Z,100974.72
2017-09-30T02:25:26.625Z,100975.13
2017-09-30T02:27:54.210Z,100992.69
2017-09-30T02:30:21.093Z,101010.64
2017-09-30T02:32:48.689Z,101036.44
2017-09-30T02:35:15.554Z,101035.57
2017-09-30T02:37:42.436Z,101011.64
2017-09-30T02:40:09.310Z,100997.27
2017-09-30T02:42:36.170Z,100992.23
2017-09-30T02:45:03.031Z,100993.72
2017-09-30T02:47:29.906Z,100989.32
2017-09-30T02:49:56.729Z,100981.01
2017-09-30T02:52:23.560Z,100988.38
2017-09-30T02:54:50.466Z,100985.66
2017-09-30T02:57:17.376Z,100980.94
2017-09-30T02:59:44.209Z,100973.92
2017-09-30T03:02:11.772Z,100969.46
2017-09-30T03:04:38.669Z,100963.64
2017-09-30T03:07:06.261Z,100959.80
2017-09-30T03:09:33.097Z,100948.58
2017-09-30T03:12:00.651Z,100932.91
2017-09-30T03:14:27.507Z,100937.58
2017-09-30T03:16:54.374Z,100936.84
2017-09-30T03:19:21.224Z,100932.95
2017-09-30T03:21:48.060Z,100926.88
2017-09-30T03:24:14.900Z,100918.25
2017-09-30T03:26:41.739Z,100909.80
2017-09-30T03:29:09.324Z,100909.20
2017-09-30T03:31:36.941Z,100899.62
2017-09-30T03:34:03.794Z,100897.93
2017-09-30T03:36:30.690Z,100892.37
2017-09-30T03:38:57.582Z,100893.41
2017-09-30T03:41:25.180Z,100899.11
2017-09-30T03:43:52.026Z,100905.38
2017-09-30T03:46:18.940Z,100909.31
2017-09-30T03:48:45.810Z,100901.36
2017-09-30T03:51:12.642Z,100894.49
2017-09-30T03:53:39.463Z,100883.75
2017-09-30T03:56:07.040Z,100885.36
2017-09-30T03:58:33.866Z,100888.17
2017-09-30T04:01:00.721Z,100880.66
2017-09-30T04:03:27.571Z,100871.11
2017-09-30T04:05:54.434Z,100873.48
2017-09-30T04:08:21.270Z,100869.40
2017-09-30T04:10:48.080Z,100865.95
2017-09-30T04:13:14.915Z,100858.78
2017-09-30T04:15:41.790Z,100854.05
2017-09-30T04:18:08.616Z,100845.72
2017-09-30T04:20:35.533Z,100848.58
2017-09-30T04:23:02.357Z,100855.56
2017-09-30T04:25:29.940Z,100844.31
2017-09-30T04:27:56.827Z,100843.14
2017-09-30T04:30:23.679Z,100836.29
2017-09-30T04:32:50.546Z,100834.36
2017-09-30T04:35:17.375Z,100841.89
2017-09-30T04:37:44.213Z,100845.89
2017-09-30T04:40:11.854Z,100848.48
2017-09-30T04:42:38.695Z,100848.50
2017-09-30T04:45:05.529Z,100851.84
2017-09-30T04:47:32.392Z,100849.96
2017-09-30T04:49:59.211Z,100857.06
2017-09-30T04:52:26.048Z,100850.85
2017-09-30T04:54:52.902Z,100862.24
2017-09-30T04:57:19.724Z,100859.00
2017-09-30T04:59:46.552Z,100860.91
2017-09-30T05:02:13.414Z,100855.89
2017-09-30T05:04:40.285Z,100861.00
2017-09-30T05:07:07.144Z,100861.70
2017-09-30T05:09:33.984Z,100859.48
2017-09-30T05:12:00.866Z,100859.84
2017-09-30T05:14:27.708Z,100855.97
2017-09-30T05:16:54.580Z,100853.56
2017-09-30T05:19:21.435Z,100850.83
2017-09-30T05:21:48.290Z,100854.73
2017-09-30T05:24:15.175Z,100859.75
2017-09-30T05:26:42.763Z,100858.78
2017-09-30T05:29:10.364Z,100861.19
2017-09-30T05:31:37.162Z,100865.58
2017-09-30T05:34:03.991Z,100867.33
2017-09-30T05:36:30.804Z,100872.15
2017-09-30T05:38:57.619Z,100874.52
2017-09-30T05:41:24.466Z,100870.05
2017-09-30T05:43:51.282Z,100873.39
2017-09-30T05:46:18.128Z,100871.63
2017-09-30T05:48:45.037Z,100874.85
2017-09-30T05:51:12.610Z,100878.79
2017-09-30T05:53:40.192Z,100872.52
2017-09-30T05:56:07.763Z,100866.23
2017-09-30T05:58:35.388Z,100865.46
2017-09-30T06:01:02.215Z,100865.20
2017-09-30T06:03:29.034Z,100870.76
2017-09-30T06:05:55.902Z,100864.59
2017-09-30T06:08:22.716Z,100864.95
2017-09-30T06:10:49.507Z,100868.63
2017-09-30T06:13:16.374Z,100865.81
2017-09-30T06:15:43.203Z,100865.09
2017-09-30T06:18:10.168Z,100855.38
2017-09-30T06:20:37.068Z,100855.17
2017-09-30T06:23:03.962Z,100861.03
2017-09-30T06:25:30.848Z,100859.44
2017-09-30T06:27:57.694Z,100852.76
2017-09-30T06:30:24.515Z,100853.92
2017-09-30T06:32:51.363Z,100850.03
2017-09-30T06:35:18.253Z,100850.16
2017-09-30T06:37:45.082Z,100848.31
2017-09-30T06:40:11.915Z,100846.63
2017-09-30T06:42:38.815Z,100850.33
2017-09-30T06:45:05.623Z,100843.41
2017-09-30T06:47:32.450Z,100847.48
2017-09-30T06:49:59.314Z,100847.67
2017-09-30T06:52:28.321Z,100856.64
2017-09-30T06:54:56.053Z,100856.70
2017-09-30T06:57:22.944Z,100857.16
2017-09-30T06:59:49.791Z,100848.75
2017-09-30T07:02:16.725Z,100854.27
2017-09-30T07:04:43.567Z,100856.58
2017-09-30T07:07:11.124Z,100857.58
2017-09-30T07:09:38.023Z,100862.55
2017-09-30T07:12:04.942Z,100862.20
2017-09-30T07:14:31.789Z,100854.83
2017-09-30T07:16:59.059Z,100857.45
2017-09-30T07:19:26.022Z,100850.67
2017-09-30T07:21:52.928Z,100846.83
2017-09-30T07:24:20.534Z,100850.44
2017-09-30T07:26:47.382Z,100846.50
2017-09-30T07:29:14.215Z,100835.69
2017-09-30T07:31:41.036Z,100832.88
2017-09-30T07:34:07.889Z,100845.48
2017-09-30T07:36:34.757Z,100834.58
2017-09-30T07:39:01.577Z,100836.76
2017-09-30T07:41:29.148Z,100837.41
2017-09-30T07:43:56.744Z,100829.85
2017-09-30T07:46:23.593Z,100833.08
2017-09-30T07:48:51.158Z,100826.80
2017-09-30T07:51:18.011Z,100824.80
2017-09-30T07:53:44.850Z,100832.84
2017-09-30T07:56:11.680Z,100839.71
2017-09-30T07:58:38.516Z,100835.40
2017-09-30T08:01:06.118Z,100841.22
2017-09-30T08:03:32.939Z,100848.62
2017-09-30T08:06:00.562Z,100848.64
2017-09-30T08:08:27.431Z,100849.70
2017-09-30T08:10:54.280Z,100850.70
2017-09-30T08:13:21.125Z,100857.20
2017-09-30T08:15:47.977Z,100851.97
2017-09-30T08:18:15.528Z,100852.68
2017-09-30T08:20:42.351Z,100856.41
2017-09-30T08:23:09.183Z,100854.25
2017-09-30T08:25:36.055Z,100852.92
2017-09-30T08:28:02.883Z,100848.13
2017-09-30T08:30:29.843Z,100843.97
2017-09-30T08:32:56.764Z,100844.45
2017-09-30T08:35:23.631Z,100843.43
2017-09-30T08:37:50.463Z,100832.52
2017-09-30T08:40:17.403Z,100831.26
2017-09-30T08:42:45.448Z,100830.89
2017-09-30T08:45:13.232Z,100831.52
2017-09-30T08:47:40.088Z,100818.39
2017-09-30T08:50:07.010Z,100809.13
2017-09-30T08:52:33.950Z,100814.81
2017-09-30T08:55:00.842Z,100807.08
2017-09-30T08:57:27.737Z,100796.79
2017-09-30T08:59:54.575Z,100798.73
2017-09-30T09:02:21.481Z,100788.30
2017-09-30T09:04:48.368Z,100793.48
2017-09-30T09:07:15.955Z,100792.17
2017-09-30T09:09:43.544Z,100789.30
2017-09-30T09:12:10.389Z,100781.94
2017-09-30T09:14:37.302Z,100775.92
2017-09-30T09:17:04.169Z,100766.45
2017-09-30T09:19:31.022Z,100760.03
2017-09-30T09:21:57.870Z,100750.04
2017-09-30T09:24:24.728Z,100740.09
2017-09-30T09:26:51.578Z,100740.54
2017-09-30T09:29:18.420Z,100743.70
2017-09-30T09:31:46.002Z,100739.01
2017-09-30T09:34:13.598Z,100732.19
2017-09-30T09:36:40.529Z,100728.59
2017-09-30T09:39:07.374Z,100736.89
2017-09-30T09:41:34.180Z,100736.06
2017-09-30T09:44:01.025Z,100737.30
2017-09-30T09:46:28.627Z,100739.11
2017-09-30T09:48:55.466Z,100744.36
2017-09-30T09:51:23.031Z,100738.86
2017-09-30T09:53:49.939Z,100740.11
2017-09-30T09:56:16.799Z,100736.63
2017-09-30T09:58:43.664Z,100730.91
2017-09-30T10:01:10.523Z,100720.62
2017-09-30T10:03:37.424Z,100719.36
2017-09-30T10:06:04.293Z,100722.59
2017-09-30T10:08:31.177Z,100722.38
2017-09-30T10:10:58.854Z,100722.34
2017-09-30T10:13:26.442Z,100724.22
2017-09-30T10:15:54.052Z,100723.02
2017-09-30T10:18:20.914Z,100726.90
2017-09-30T10:20:47.748Z,100725.73
2017-09-30T10:23:14.616Z,100730.08
2017-09-30T10:25:41.450Z,100724.52
2017-09-30T10:28:09.021Z,100726.27
2017-09-30T10:30:36.658Z,100723.00
2017-09-30T10:33:03.493Z,100718.55
2017-09-30T10:35:30.295Z,100713.13
2017-09-30T10:37:57.128Z,100716.43
2017-09-30T10:40:23.967Z,100727.91
2017-09-30T10:42:50.797Z,100728.23
2017-09-30T10:45:17.708Z,100727.57
2017-09-30T10:47:44.576Z,100723.88
2017-09-30T10:50:11.467Z,100729.48
2017-09-30T10:52:38.301Z,100727.52
2017-09-30T10:55:05.136Z,100722.89
2017-09-30T10:57:32.003Z,100720.99
2017-09-30T10:59:58.820Z,100724.81
2017-09-30T11:02:25.658Z,100717.53
2017-09-30T11:04:52.551Z,100712.70
2017-09-30T11:07:19.396Z,100709.50
2017-09-30T11:09:46.225Z,100711.31
2017-09-30T11:12:13.085Z,100711.09
2017-09-30T11:14:39.945Z,100711.34
2017-09-30T11:17:06.800Z,100706.50
2017-09-30T11:19:33.645Z,100701.41
2017-09-30T11:22:01.313Z,100700.20
2017-09-30T11:24:29.362Z,100696.77
2017-09-30T11:26:56.262Z,100694.30
2017-09-30T11:29:24.267Z,100709.57
2017-09-30T11:31:51.165Z,100708.84
2017-09-30T11:34:18.170Z,100737.22
2017-09-30T11:36:44.995Z,100726.31
2017-09-30T11:39:11.829Z,100738.34
2017-09-30T11:41:38.926Z,100733.39
2017-09-30T11:44:05.791Z,100735.53
2017-09-30T11:46:32.634Z,100748.20
2017-09-30T11:48:59.475Z,100753.14
2017-09-30T11:51:26.415Z,100755.89
2017-09-30T11:53:53.278Z,100759.95
2017-09-30T11:56:20.879Z,100759.20
2017-09-30T11:58:47.727Z,100762.44
2017-09-30T12:01:15.368Z,100764.61
2017-09-30T12:03:42.282Z,100763.31
2017-09-30T12:06:09.158Z,100774.39
2017-09-30T12:08:36.008Z,100762.27
2017-09-30T12:11:02.907Z,100770.90
2017-09-30T12:13:29.759Z,100778.92
2017-09-30T12:15:56.631Z,100778.53
2017-09-30T12:18:23.496Z,100784.58
2017-09-30T12:20:50.380Z,100781.53
2017-09-30T12:23:17.233Z,100791.80
2017-09-30T12:25:44.509Z,100795.70
2017-09-30T12:28:12.169Z,100802.34
2017-09-30T12:30:39.288Z,100801.66
2017-09-30T12:33:06.145Z,100809.75
2017-09-30T12:35:33.777Z,100811.66
2017-09-30T12:38:00.635Z,100810.35
2017-09-30T12:40:27.791Z,100812.09
2017-09-30T12:42:54.710Z,100809.11
2017-09-30T12:45:22.399Z,100812.83
2017-09-30T12:47:49.238Z,100815.20
2017-09-30T12:50:16.828Z,100814.70
2017-09-30T12:52:44.421Z,100816.92
2017-09-30T12:55:11.619Z,100810.95
2017-09-30T12:57:40.452Z,100813.16
2017-09-30T13:00:07.868Z,100808.52
2017-09-30T13:02:34.722Z,100818.48
2017-09-30T13:05:01.539Z,100822.58
2017-09-30T13:07:28.634Z,100824.17
2017-09-30T13:09:56.180Z,100833.00
2017-09-30T13:12:23.017Z,100835.66
2017-09-30T13:14:49.887Z,100840.73
2017-09-30T13:17:16.731Z,100850.08
2017-09-30T13:19:45.330Z,100842.53
2017-09-30T13:22:12.126Z,100853.93
2017-09-30T13:24:38.958Z,100859.38
2017-09-30T13:27:05.773Z,100867.50
2017-09-30T13:29:32.664Z,100861.20
2017-09-30T13:31:59.520Z,100874.21
2017-09-30T13:34:26.427Z,100872.46
2017-09-30T13:36:53.208Z,100870.22
2017-09-30T13:39:20.009Z,100879.94
2017-09-30T13:41:46.830Z,100885.66
2017-09-30T13:44:13.638Z,100873.78
2017-09-30T13:46:40.517Z,100873.05
2017-09-30T13:49:07.365Z,100878.48
2017-09-30T13:51:34.222Z,100879.16
2017-09-30T13:54:01.019Z,100879.16
2017-09-30T13:56:27.835Z,100874.79
2017-09-30T13:58:54.651Z,100874.94
2017-09-30T14:01:22.367Z,100882.77
2017-09-30T14:03:49.211Z,100885.30
2017-09-30T14:06:16.793Z,100898.64
2017-09-30T14:08:43.600Z,100901.02
2017-09-30T14:11:11.284Z,100904.00
2017-09-30T14:13:39.129Z,100916.38
2017-09-30T14:16:05.932Z,100920.52
2017-09-30T14:18:32.858Z,100924.74
2017-09-30T14:20:59.710Z,100929.05
2017-09-30T14:23:27.275Z,100932.13
2017-09-30T14:25:54.877Z,100933.34
2017-09-30T14:28:21.706Z,100940.10
2017-09-30T14:30:48.594Z,100942.94
2017-09-30T14:33:15.429Z,100947.92
2017-09-30T14:35:42.346Z,100942.97
2017-09-30T14:38:09.246Z,100949.97
2017-09-30T14:40:36.134Z,100948.94
2017-09-30T14:43:02.998Z,100956.72
2017-09-30T14:45:29.851Z,100954.42
2017-09-30T14:47:57.429Z,100952.73
2017-09-30T14:50:25.068Z,100940.53
2017-09-30T14:52:51.905Z,100944.66
2017-09-30T14:55:18.748Z,100944.02
2017-09-30T14:57:45.593Z,100942.37
2017-09-30T15:00:13.191Z,100935.22
2017-09-30T15:02:40.039Z,100939.53
2017-09-30T15:05:07.221Z,100939.00
2017-09-30T15:07:34.056Z,100942.30
2017-09-30T15:10:01.652Z,100956.10
2017-09-30T15:12:28.472Z,100950.09
2017-09-30T15:14:55.351Z,100961.39
2017-09-30T15:17:22.172Z,100966.25
2017-09-30T15:19:49.042Z,100971.94
2017-09-30T15:22:15.882Z,100972.45
2017-09-30T15:24:42.900Z,100977.73
2017-09-30T15:27:09.823Z,100968.24
2017-09-30T15:29:36.720Z,100976.31
2017-09-30T15:32:03.564Z,100972.34
2017-09-30T15:34:30.625Z,100984.48
2017-09-30T15:36:57.507Z,100990.88
2017-09-30T15:39:24.425Z,100993.16
2017-09-30T15:41:51.249Z,100990.34
2017-09-30T15:44:18.882Z,100993.57
2017-09-30T15:46:45.936Z,100996.03
2017-09-30T15:49:12.948Z,100998.69
2017-09-30T15:51:39.809Z,100999.92
2017-09-30T15:54:07.515Z,101007.65
2017-09-30T15:56:34.440Z,101007.50
2017-09-30T15:59:01.360Z,101012.22
2017-09-30T16:01:28.408Z,101010.01
2017-09-30T16:03:55.320Z,101001.59
2017-09-30T16:06:24.528Z,101015.97
2017-09-30T16:08:51.505Z,101020.98
2017-09-30T16:11:18.564Z,101019.25
2017-09-30T16:13:45.482Z,101022.36
2017-09-30T16:16:12.379Z,101021.41
2017-09-30T16:18:39.221Z,101019.97
2017-09-30T16:21:06.353Z,101016.64
2017-09-30T16:23:33.959Z,101029.31
2017-09-30T16:26:00.857Z,101024.80
2017-09-30T16:28:27.681Z,101036.84
2017-09-30T16:30:54.537Z,101036.34
2017-09-30T16:33:21.406Z,101039.35
2017-09-30T16:35:48.249Z,101042.28
2017-09-30T16:38:15.129Z,101047.25
2017-09-30T16:40:41.970Z,101045.72
2017-09-30T16:43:09.627Z,101044.73
2017-09-30T16:45:36.474Z,101044.67
2017-09-30T16:48:03.374Z,101042.25
2017-09-30T16:50:30.966Z,101047.00
2017-09-30T16:52:57.808Z,101045.41
2017-09-30T16:55:25.369Z,101046.16
2017-09-30T16:57:52.201Z,101035.45
2017-09-30T17:00:19.052Z,101044.97
2017-09-30T17:02:45.907Z,101038.23
2017-09-30T17:05:12.727Z,101040.94
2017-09-30T17:07:40.286Z,101042.70
2017-09-30T17:10:07.123Z,101044.86
2017-09-30T17:12:33.980Z,101050.45
2017-09-30T17:15:00.828Z,101050.84
2017-09-30T17:17:27.665Z,101044.60
2017-09-30T17:19:54.513Z,101054.42
2017-09-30T17:22:22.083Z,101061.30
2017-09-30T17:24:49.668Z,101060.48
2017-09-30T17:27:17.254Z,101054.70
2017-09-30T17:29:44.820Z,101058.06
2017-09-30T17:32:12.418Z,101061.23
2017-09-30T17:34:39.271Z,101062.15
2017-09-30T17:37:06.142Z,101061.53
2017-09-30T17:39:33.046Z,101068.39
2017-09-30T17:41:59.911Z,101068.94
2017-09-30T17:44:26.726Z,101078.03
2017-09-30T17:46:53.604Z,101077.94
2017-09-30T17:49:20.428Z,101075.16
2017-09-30T17:51:47.998Z,101076.84
2017-09-30T17:54:15.185Z,101078.15
2017-09-30T17:56:42.763Z,101076.14
2017-09-30T17:59:10.368Z,101076.53
2017-09-30T18:01:37.341Z,101082.75
2017-09-30T18:04:04.227Z,101085.91
2017-09-30T18:06:31.063Z,101086.02
2017-09-30T18:08:57.947Z,101087.27
2017-09-30T18:11:24.762Z,101093.31
2017-09-30T18:13:51.601Z,101095.09
2017-09-30T18:16:21.113Z,101089.44
2017-09-30T18:18:47.997Z,101086.66
2017-09-30T18:21:15.063Z,101082.88
2017-09-30T18:23:42.831Z,101083.02
2017-09-30T18:26:09.949Z,101081.50
2017-09-30T18:28:37.333Z,101092.03
2017-09-30T18:31:05.024Z,101096.14
2017-09-30T18:33:33.627Z,101093.14
2017-09-30T18:36:00.536Z,101100.66
2017-09-30T18:38:28.470Z,101107.19
2017-09-30T18:40:55.342Z,101107.42
2017-09-30T18:43:22.246Z,101104.11
2017-09-30T18:45:49.074Z,101114.56
2017-09-30T18:48:15.922Z,101115.13
2017-09-30T18:50:42.800Z,101119.58
2017-09-30T18:53:09.699Z,101110.56
2017-09-30T18:55:36.597Z,101112.48
2017-09-30T18:58:04.696Z,101118.39
2017-09-30T19:00:31.786Z,101112.34
2017-09-30T19:02:58.710Z,101115.58
2017-09-30T19:05:25.653Z,101125.42
2017-09-30T19:07:53.257Z,101123.59
2017-09-30T19:10:20.207Z,101119.47
2017-09-30T19:12:47.117Z,101124.64
2017-09-30T19:15:14.015Z,101117.38
2017-09-30T19:17:40.870Z,101121.13
2017-09-30T19:20:07.787Z,101117.58
2017-09-30T19:22:34.672Z,101122.69
2017-09-30T19:25:02.316Z,101120.10
2017-09-30T19:27:29.182Z,101131.29
2017-09-30T19:29:56.104Z,101136.77
2017-09-30T19:32:22.962Z,101135.48
2017-09-30T19:34:49.822Z,101132.13
2017-09-30T19:37:16.631Z,101135.75
2017-09-30T19:39:43.460Z,101142.53
2017-09-30T19:42:10.422Z,101145.23
2017-09-30T19:44:39.450Z,101145.21
2017-09-30T19:47:06.367Z,101153.99
2017-09-30T19:49:34.315Z,101150.18
2017-09-30T19:52:01.169Z,101152.85
2017-09-30T19:54:28.056Z,101156.67
2017-09-30T19:56:54.921Z,101167.78
2017-09-30T19:59:21.803Z,101171.38
2017-09-30T20:01:48.807Z,101180.15
2017-09-30T20:04:15.655Z,101179.27
2017-09-30T20:06:43.287Z,101178.88
2017-09-30T20:09:10.215Z,101168.30
2017-09-30T20:11:37.181Z,101173.02
2017-09-30T20:14:04.181Z,101182.31
2017-09-30T20:16:31.040Z,101175.67
2017-09-30T20:18:57.888Z,101174.20
2017-09-30T20:21:24.735Z,101172.84
2017-09-30T20:23:51.570Z,101178.53
2017-09-30T20:26:18.418Z,101173.89
2017-09-30T20:28:45.246Z,101178.53
2017-09-30T20:31:12.049Z,101184.00
2017-09-30T20:33:38.880Z,101190.81
2017-09-30T20:36:05.747Z,101194.51
2017-09-30T20:38:32.589Z,101187.38
2017-09-30T20:40:59.439Z,101194.95
2017-09-30T20:43:26.307Z,101192.81
2017-09-30T20:45:53.210Z,101194.13
2017-09-30T20:48:20.188Z,101186.09
2017-09-30T20:50:47.255Z,101188.84
2017-09-30T20:53:14.117Z,101186.02
2017-09-30T20:55:40.992Z,101199.50
2017-09-30T20:58:07.824Z,101188.07
2017-09-30T21:00:34.670Z,101188.31
2017-09-30T21:03:01.499Z,101190.28
2017-09-30T21:05:28.435Z,101187.64
2017-09-30T21:07:55.300Z,101188.88
2017-09-30T21:10:22.460Z,101187.36
2017-09-30T21:12:49.319Z,101188.02
2017-09-30T21:15:17.345Z,101198.00
2017-09-30T21:17:44.146Z,101195.95
2017-09-30T21:20:10.994Z,101197.53
2017-09-30T21:22:38.622Z,101197.82
2017-09-30T21:25:05.451Z,101189.23
2017-09-30T21:27:32.287Z,101189.40
2017-09-30T21:29:59.857Z,101187.97
2017-09-30T21:32:26.775Z,101192.39
2017-09-30T21:34:53.692Z,101193.84
2017-09-30T21:37:21.261Z,101194.45
2017-09-30T21:39:48.333Z,101191.41
2017-09-30T21:42:15.413Z,101201.16
2017-09-30T21:44:42.266Z,101198.11
2017-09-30T21:47:09.844Z,101194.44
2017-09-30T21:49:37.429Z,101195.44
2017-09-30T21:52:04.290Z,101205.59
2017-09-30T21:54:31.893Z,101208.71
2017-09-30T21:56:58.718Z,101205.41
2017-09-30T21:59:26.296Z,101204.81
2017-09-30T22:01:53.888Z,101208.33
2017-09-30T22:04:20.705Z,101198.68
2017-09-30T22:06:47.525Z,101200.00
2017-09-30T22:09:14.358Z,101195.44
2017-09-30T22:11:41.976Z,101200.36
2017-09-30T22:14:08.815Z,101200.61
2017-09-30T22:16:35.627Z,101196.48
2017-09-30T22:19:02.467Z,101190.24
2017-09-30T22:21:29.304Z,101194.43
2017-09-30T22:23:56.107Z,101197.41
2017-09-30T22:26:22.933Z,101189.39
2017-09-30T22:28:49.774Z,101199.12
2017-09-30T22:31:17.307Z,101195.84
2017-09-30T22:33:44.135Z,101204.64
2017-09-30T22:36:11.506Z,101199.75
2017-09-30T22:38:38.336Z,101201.11
2017-09-30T22:41:05.994Z,101205.27
2017-09-30T22:43:32.838Z,101209.26
2017-09-30T22:45:59.654Z,101199.91
2017-09-30T22:48:26.478Z,101208.27
2017-09-30T22:50:53.302Z,101207.71
2017-09-30T22:53:20.174Z,101207.38
2017-09-30T22:55:46.999Z,101206.60
2017-09-30T22:58:13.854Z,101198.91
2017-09-30T23:00:40.703Z,101210.20
2017-09-30T23:03:08.321Z,101199.63
2017-09-30T23:05:35.196Z,101204.36
2017-09-30T23:08:02.023Z,101211.13
2017-09-30T23:10:28.838Z,101211.14
2017-09-30T23:12:55.640Z,101211.49
2017-09-30T23:15:22.463Z,101215.23
2017-09-30T23:17:49.306Z,101216.61
2017-09-30T23:20:16.146Z,101224.06
2017-09-30T23:22:43.027Z,101213.02
2017-09-30T23:25:09.813Z,101216.47
2017-09-30T23:27:36.611Z,101218.48
2017-09-30T23:30:03.497Z,101216.27
2017-09-30T23:32:30.312Z,101223.98
2017-09-30T23:34:57.851Z,101218.92
2017-09-30T23:37:24.769Z,101221.02
2017-09-30T23:39:51.596Z,101214.34
2017-09-30T23:42:18.424Z,101220.33
2017-09-30T23:44:45.265Z,101222.89
2017-09-30T23:47:12.118Z,101223.44
2017-09-30T23:49:38.917Z,101228.62
2017-09-30T23:52:05.723Z,101230.65
2017-09-30T23:54:33.319Z,101228.70
2017-09-30T23:57:00.131Z,101225.34
2017-09-30T23:59:27.005Z,101236.82
